SUD005 LQSA-LOWI
Flight info
| Callsign | SUD005 |
|---|---|
| Flight time | N/A |
| Altitude | 38000 |
| Route | BOSNA DCT OKSIG DCT NANIT NANIT2A |
| Aircraft | A320/M-SDFGHILORVWY/S |
Departure
| Time | 2026-04-21 11:45 |
|---|---|
| Airport | Sarajevo International Airport (LQSA) |
Arrival
| Time | N/A |
|---|---|
| Airport | Innsbruck Airport (LOWI) |
| Time | Latitude | Longitude | Altitude | Speed | Heading |
|---|---|---|---|---|---|
| 2026-04-21 11:26 | 43.82547 | 18.33627 | 1682 ft | 0 kts | 22° |
| 2026-04-21 11:34 | 43.82540 | 18.33623 | 1687 ft | 4 kts | 31° |
| 2026-04-21 11:34 | 43.82523 | 18.33607 | 1684 ft | 4 kts | 39° |
| 2026-04-21 11:35 | 43.82504 | 18.33581 | 1684 ft | 4 kts | 56° |
| 2026-04-21 11:35 | 43.82497 | 18.33565 | 1681 ft | 1 kts | 60° |
| 2026-04-21 11:35 | 43.82496 | 18.33563 | 1681 ft | 1 kts | 60° |
| 2026-04-21 11:37 | 43.82496 | 18.33569 | 1681 ft | 1 kts | 87° |
| 2026-04-21 11:38 | 43.82493 | 18.33571 | 1687 ft | 0 kts | 120° |
| 2026-04-21 11:38 | 43.82485 | 18.33588 | 1690 ft | 7 kts | 126° |
| 2026-04-21 11:39 | 43.82436 | 18.33680 | 1689 ft | 16 kts | 117° |
| 2026-04-21 11:39 | 43.82379 | 18.33837 | 1692 ft | 21 kts | 117° |
| 2026-04-21 11:39 | 43.82304 | 18.34032 | 1693 ft | 26 kts | 117° |
| 2026-04-21 11:39 | 43.82227 | 18.34237 | 1698 ft | 20 kts | 117° |
| 2026-04-21 11:40 | 43.82156 | 18.34431 | 1701 ft | 24 kts | 118° |
| 2026-04-21 11:40 | 43.82103 | 18.34570 | 1709 ft | 16 kts | 121° |
| 2026-04-21 11:40 | 43.82039 | 18.34624 | 1708 ft | 0 kts | 188° |
| 2026-04-21 11:43 | 43.82021 | 18.34624 | 1708 ft | 5 kts | 181° |
| 2026-04-21 11:44 | 43.81994 | 18.34616 | 1708 ft | 4 kts | 201° |
| 2026-04-21 11:44 | 43.81947 | 18.34571 | 1708 ft | 14 kts | 236° |
| 2026-04-21 11:44 | 43.81992 | 18.34392 | 1700 ft | 31 kts | 297° |
| 2026-04-21 11:44 | 43.82226 | 18.33772 | 1690 ft | 111 kts | 297° |
| 2026-04-21 11:45 | 43.82689 | 18.32551 | 1715 ft | 167 kts | 298° |
| 2026-04-21 11:45 | 43.83240 | 18.31101 | 2388 ft | 174 kts | 300° |
| 2026-04-21 11:45 | 43.83963 | 18.29618 | 2868 ft | 200 kts | 311° |
| 2026-04-21 11:45 | 43.84931 | 18.28115 | 3381 ft | 217 kts | 313° |
| 2026-04-21 11:46 | 43.85927 | 18.26410 | 3864 ft | 239 kts | 307° |
| 2026-04-21 11:46 | 43.86878 | 18.24400 | 4502 ft | 260 kts | 302° |
| 2026-04-21 11:46 | 43.87821 | 18.22179 | 5370 ft | 274 kts | 302° |
| 2026-04-21 11:46 | 43.88807 | 18.19887 | 6328 ft | 280 kts | 302° |
| 2026-04-21 11:47 | 43.90020 | 18.17768 | 7255 ft | 285 kts | 322° |
| 2026-04-21 11:47 | 43.91858 | 18.16675 | 8034 ft | 300 kts | 351° |
| 2026-04-21 11:47 | 43.93999 | 18.16880 | 8651 ft | 321 kts | 12° |
| 2026-04-21 11:47 | 43.96158 | 18.17937 | 9329 ft | 335 kts | 20° |
| 2026-04-21 11:48 | 43.98327 | 18.19140 | 10259 ft | 335 kts | 17° |
| 2026-04-21 11:48 | 44.00534 | 18.20150 | 11264 ft | 333 kts | 12° |
| 2026-04-21 11:48 | 44.02776 | 18.20947 | 12251 ft | 332 kts | 8° |
| 2026-04-21 11:48 | 44.05054 | 18.21535 | 13152 ft | 334 kts | 4° |
| 2026-04-21 11:49 | 44.07368 | 18.21763 | 13976 ft | 335 kts | 355° |
| 2026-04-21 11:49 | 44.09694 | 18.21471 | 14630 ft | 337 kts | 345° |
| 2026-04-21 11:49 | 44.11935 | 18.20522 | 15322 ft | 337 kts | 332° |
| 2026-04-21 11:49 | 44.13965 | 18.18920 | 16029 ft | 336 kts | 319° |
| 2026-04-21 11:50 | 44.15610 | 18.16628 | 16722 ft | 335 kts | 303° |
| 2026-04-21 11:50 | 44.16684 | 18.13773 | 17538 ft | 333 kts | 290° |
| 2026-04-21 11:50 | 44.17351 | 18.10701 | 18462 ft | 330 kts | 283° |
| 2026-04-21 11:50 | 44.17932 | 18.07637 | 19298 ft | 327 kts | 287° |
| 2026-04-21 11:51 | 44.18936 | 18.04771 | 19830 ft | 337 kts | 300° |
| 2026-04-21 11:51 | 44.20355 | 18.02094 | 20393 ft | 344 kts | 305° |
| 2026-04-21 11:51 | 44.21927 | 17.99546 | 21012 ft | 349 kts | 308° |
| 2026-04-21 11:51 | 44.23590 | 17.97042 | 21652 ft | 353 kts | 308° |
| 2026-04-21 11:52 | 44.24710 | 17.95381 | 22032 ft | 356 kts | 308° |
| 2026-04-21 11:52 | 44.26426 | 17.92819 | 22664 ft | 358 kts | 308° |
| 2026-04-21 11:52 | 44.28096 | 17.90273 | 23203 ft | 362 kts | 307° |
| 2026-04-21 11:52 | 44.29780 | 17.87648 | 23715 ft | 364 kts | 307° |
| 2026-04-21 11:53 | 44.31459 | 17.84985 | 24235 ft | 366 kts | 306° |
| 2026-04-21 11:53 | 44.33131 | 17.82301 | 24658 ft | 368 kts | 306° |
| 2026-04-21 11:53 | 44.34815 | 17.79587 | 25064 ft | 370 kts | 306° |
| 2026-04-21 11:53 | 44.36508 | 17.76859 | 25493 ft | 372 kts | 306° |
| 2026-04-21 11:54 | 44.38208 | 17.74124 | 25993 ft | 374 kts | 307° |
| 2026-04-21 11:54 | 44.39916 | 17.71380 | 26464 ft | 375 kts | 307° |
| 2026-04-21 11:54 | 44.41632 | 17.68627 | 26904 ft | 376 kts | 307° |
| 2026-04-21 11:54 | 44.43359 | 17.65855 | 27326 ft | 379 kts | 307° |
| 2026-04-21 11:55 | 44.45093 | 17.63069 | 27740 ft | 381 kts | 307° |
| 2026-04-21 11:55 | 44.46845 | 17.60255 | 28140 ft | 384 kts | 307° |
| 2026-04-21 11:55 | 44.48601 | 17.57429 | 28535 ft | 386 kts | 307° |
| 2026-04-21 11:55 | 44.50371 | 17.54580 | 28908 ft | 389 kts | 307° |
| 2026-04-21 11:56 | 44.52150 | 17.51718 | 29269 ft | 391 kts | 307° |
| 2026-04-21 11:56 | 44.53936 | 17.48839 | 29625 ft | 392 kts | 307° |
| 2026-04-21 11:56 | 44.55728 | 17.45943 | 29969 ft | 394 kts | 307° |
| 2026-04-21 11:56 | 44.57527 | 17.43030 | 30251 ft | 396 kts | 307° |
| 2026-04-21 11:57 | 44.59331 | 17.40103 | 30503 ft | 398 kts | 307° |
| 2026-04-21 11:57 | 44.61137 | 17.37168 | 30728 ft | 399 kts | 307° |
| 2026-04-21 11:57 | 44.62959 | 17.34201 | 30944 ft | 400 kts | 307° |
| 2026-04-21 11:57 | 44.64775 | 17.31248 | 31288 ft | 399 kts | 307° |
| 2026-04-21 11:58 | 44.66585 | 17.28307 | 31672 ft | 396 kts | 307° |
| 2026-04-21 11:58 | 44.68384 | 17.25380 | 32025 ft | 395 kts | 307° |
| 2026-04-21 11:58 | 44.70172 | 17.22466 | 32367 ft | 394 kts | 307° |
| 2026-04-21 11:58 | 44.71961 | 17.19542 | 32702 ft | 393 kts | 307° |
| 2026-04-21 11:59 | 44.73743 | 17.16629 | 33049 ft | 392 kts | 308° |
| 2026-04-21 11:59 | 44.75520 | 17.13724 | 33380 ft | 392 kts | 308° |
| 2026-04-21 11:59 | 44.77297 | 17.10818 | 33709 ft | 391 kts | 308° |
| 2026-04-21 11:59 | 44.79069 | 17.07916 | 34039 ft | 390 kts | 308° |
| 2026-04-21 12:00 | 44.80834 | 17.05019 | 34322 ft | 390 kts | 308° |
| 2026-04-21 12:00 | 44.82604 | 17.02111 | 34575 ft | 391 kts | 308° |
| 2026-04-21 12:00 | 44.84370 | 16.99195 | 34809 ft | 392 kts | 308° |
| 2026-04-21 12:00 | 44.86107 | 16.96293 | 35047 ft | 393 kts | 307° |
| 2026-04-21 12:01 | 44.87866 | 16.93336 | 35287 ft | 394 kts | 307° |
| 2026-04-21 12:01 | 44.89650 | 16.90331 | 35501 ft | 395 kts | 307° |
| 2026-04-21 12:01 | 44.91391 | 16.87392 | 35740 ft | 396 kts | 307° |
| 2026-04-21 12:01 | 44.93154 | 16.84410 | 35975 ft | 397 kts | 307° |
| 2026-04-21 12:02 | 44.94927 | 16.81412 | 36170 ft | 398 kts | 307° |
| 2026-04-21 12:02 | 44.98480 | 16.75394 | 36559 ft | 400 kts | 307° |
| 2026-04-21 12:02 | 45.00262 | 16.72370 | 36741 ft | 401 kts | 307° |
| 2026-04-21 12:03 | 45.02053 | 16.69328 | 36938 ft | 403 kts | 307° |
| 2026-04-21 12:03 | 45.03844 | 16.66285 | 37126 ft | 404 kts | 308° |
| 2026-04-21 12:03 | 45.05642 | 16.63232 | 37330 ft | 405 kts | 308° |
| 2026-04-21 12:03 | 45.07444 | 16.60167 | 37502 ft | 406 kts | 308° |
| 2026-04-21 12:04 | 45.09252 | 16.57092 | 37721 ft | 407 kts | 308° |
| 2026-04-21 12:04 | 45.11063 | 16.54006 | 37901 ft | 408 kts | 308° |
| 2026-04-21 12:04 | 45.12878 | 16.50909 | 38046 ft | 409 kts | 308° |
| 2026-04-21 12:05 | 45.16513 | 16.44699 | 38064 ft | 410 kts | 308° |
| 2026-04-21 12:05 | 45.20146 | 16.38466 | 38064 ft | 410 kts | 307° |
| 2026-04-21 12:06 | 45.23778 | 16.32216 | 38069 ft | 411 kts | 308° |
| 2026-04-21 12:06 | 45.27417 | 16.25964 | 38067 ft | 411 kts | 308° |
| 2026-04-21 12:07 | 45.31055 | 16.19690 | 38073 ft | 411 kts | 307° |
| 2026-04-21 12:07 | 45.34686 | 16.13407 | 38074 ft | 412 kts | 307° |
| 2026-04-21 12:08 | 45.38318 | 16.07109 | 38074 ft | 412 kts | 308° |
| 2026-04-21 12:08 | 45.41946 | 16.00808 | 38076 ft | 412 kts | 308° |
| 2026-04-21 12:09 | 45.45583 | 15.94491 | 38103 ft | 412 kts | 307° |
| 2026-04-21 12:09 | 45.49207 | 15.88161 | 38086 ft | 412 kts | 307° |
| 2026-04-21 12:10 | 45.52810 | 15.81841 | 38085 ft | 413 kts | 307° |
| 2026-04-21 12:10 | 45.56440 | 15.75486 | 38058 ft | 413 kts | 308° |
| 2026-04-21 12:11 | 45.60062 | 15.69137 | 38057 ft | 412 kts | 307° |
| 2026-04-21 12:11 | 45.63675 | 15.62774 | 38064 ft | 412 kts | 307° |
| 2026-04-21 12:12 | 45.67280 | 15.56407 | 38065 ft | 412 kts | 307° |
| 2026-04-21 12:12 | 45.70889 | 15.50033 | 38066 ft | 412 kts | 307° |
| 2026-04-21 12:13 | 45.74489 | 15.43650 | 38068 ft | 412 kts | 307° |
| 2026-04-21 12:13 | 45.78081 | 15.37273 | 38068 ft | 412 kts | 307° |
| 2026-04-21 12:14 | 45.81676 | 15.30872 | 38068 ft | 412 kts | 307° |
| 2026-04-21 12:14 | 45.85268 | 15.24463 | 38068 ft | 412 kts | 307° |
| 2026-04-21 12:15 | 45.88858 | 15.18046 | 38068 ft | 412 kts | 307° |